Terminal Aerodrome Forecast
Issued by NWS Austin/San Antonio, TX

Current Version | Previous Version | Text Only | Print | Product List | Glossary On
Versions: 1 2 3 4 5 6 7 8 9 10 11 12
000
FTUS44 KEWX 032334
TAFAUS
TAF
KAUS 032334Z 0400/0506 13007KT P6SM FEW070
     FM040900 18003KT P6SM SCT025
     FM041600 17011KT P6SM FEW050 SCT250=

USA.gov is the U.S. government's official web portal to all federal, state and local government web resources and services.